createdAt,value
2023-05-09T00:00:03.840Z,96.0985
2023-05-09T00:01:06.902Z,96.1330
2023-05-09T00:02:09.882Z,96.1506
2023-05-09T00:03:12.982Z,96.2782
2023-05-09T00:04:16.004Z,96.3555
2023-05-09T00:05:19.007Z,96.3791
2023-05-09T00:06:21.972Z,96.4095
2023-05-09T00:07:24.961Z,96.3947
2023-05-09T00:08:27.967Z,96.2646
2023-05-09T00:09:30.971Z,96.2345
2023-05-09T00:10:33.985Z,96.3241
2023-05-09T00:11:37.052Z,96.2582
2023-05-09T00:12:40.088Z,96.3299
2023-05-09T00:13:43.061Z,96.3246
2023-05-09T00:14:46.059Z,96.3760
2023-05-09T00:15:49.030Z,96.4195
2023-05-09T00:16:52.125Z,96.3805
2023-05-09T00:17:55.119Z,96.4967
2023-05-09T00:18:58.130Z,96.5253
2023-05-09T00:20:01.112Z,96.6581
2023-05-09T00:21:04.108Z,96.6445
2023-05-09T00:22:07.163Z,96.5459
2023-05-09T00:23:10.129Z,96.4196
2023-05-09T00:24:13.122Z,96.3418
2023-05-09T00:25:16.332Z,96.2948
2023-05-09T00:26:19.463Z,96.2635
2023-05-09T00:27:22.472Z,96.0202
2023-05-09T00:28:25.450Z,95.9313
2023-05-09T00:29:28.437Z,95.9306
2023-05-09T00:30:31.407Z,95.7324
2023-05-09T00:31:34.421Z,95.7578
2023-05-09T00:32:37.400Z,95.7932
2023-05-09T00:33:40.424Z,95.3851
2023-05-09T00:34:43.443Z,94.9116
2023-05-09T00:35:46.369Z,94.9304
2023-05-09T00:36:49.383Z,95.1788
2023-05-09T00:37:52.340Z,95.2383
2023-05-09T00:38:55.294Z,95.3557
2023-05-09T00:39:58.274Z,95.5383
2023-05-09T00:41:01.253Z,95.7893
2023-05-09T00:42:04.226Z,96.2287
2023-05-09T00:43:07.219Z,96.3261
2023-05-09T00:44:10.190Z,96.5855
2023-05-09T00:45:13.316Z,96.9628
2023-05-09T00:46:16.532Z,97.3372
2023-05-09T00:47:19.601Z,97.5520
2023-05-09T00:48:22.583Z,97.5358
2023-05-09T00:49:25.575Z,97.4839
2023-05-09T00:50:28.583Z,97.2869
2023-05-09T00:51:31.525Z,96.9538
2023-05-09T00:52:34.558Z,96.8373
2023-05-09T00:53:37.537Z,96.8334
2023-05-09T00:54:40.550Z,96.8890
2023-05-09T00:55:43.617Z,97.0114
2023-05-09T00:56:46.564Z,97.1298
2023-05-09T00:57:49.531Z,97.2083
2023-05-09T00:58:52.521Z,97.2909
2023-05-09T00:59:55.516Z,97.3793
2023-05-09T01:00:58.837Z,97.4140
2023-05-09T01:02:01.837Z,97.3456
2023-05-09T01:03:04.920Z,97.2873
2023-05-09T01:04:07.938Z,97.2825
2023-05-09T01:05:10.965Z,97.4112
2023-05-09T01:06:13.965Z,97.4104
2023-05-09T01:07:16.942Z,97.4350
2023-05-09T01:08:19.894Z,97.2926
2023-05-09T01:09:23.138Z,97.0873
2023-05-09T01:10:26.127Z,97.1432
2023-05-09T01:11:29.134Z,97.2039
2023-05-09T01:12:32.114Z,97.2650
2023-05-09T01:13:35.138Z,97.4141
2023-05-09T01:14:38.142Z,97.5168
2023-05-09T01:15:41.200Z,97.6227
2023-05-09T01:16:44.151Z,97.7700
2023-05-09T01:17:47.161Z,97.8483
2023-05-09T01:18:50.109Z,97.9213
2023-05-09T01:19:53.079Z,98.0054
2023-05-09T01:20:56.064Z,98.0981
2023-05-09T01:21:59.088Z,98.0898
2023-05-09T01:23:02.017Z,98.0866
2023-05-09T01:24:05.005Z,98.1191
2023-05-09T01:25:08.227Z,98.1497
2023-05-09T01:26:11.203Z,98.1647
2023-05-09T01:27:14.229Z,98.1647
2023-05-09T01:28:17.189Z,98.1933
2023-05-09T01:29:20.427Z,98.1997
2023-05-09T01:30:23.449Z,98.1344
2023-05-09T01:31:26.506Z,98.2381
2023-05-09T01:32:29.514Z,98.3294
2023-05-09T01:33:32.459Z,98.4485
2023-05-09T01:34:35.461Z,98.5496
2023-05-09T01:35:38.428Z,98.5837
2023-05-09T01:36:41.388Z,98.5992
2023-05-09T01:37:44.405Z,98.6044
2023-05-09T01:38:47.341Z,98.6295
2023-05-09T01:39:50.348Z,98.6775
2023-05-09T01:40:53.362Z,98.7205
2023-05-09T01:41:56.899Z,98.7518
2023-05-09T01:42:59.889Z,98.7517
2023-05-09T01:44:02.910Z,98.7370
2023-05-09T01:45:06.220Z,98.7270
2023-05-09T01:46:09.218Z,98.6695
2023-05-09T01:47:12.415Z,98.4737
2023-05-09T01:48:15.416Z,98.5528
2023-05-09T01:49:19.167Z,98.6144
2023-05-09T01:50:22.141Z,98.6425
2023-05-09T01:51:25.109Z,98.7388
2023-05-09T01:52:28.098Z,98.8663
2023-05-09T01:53:31.120Z,99.0279
2023-05-09T01:54:34.073Z,99.0946
2023-05-09T01:55:37.061Z,99.0994
2023-05-09T01:56:40.043Z,99.0555
2023-05-09T01:57:43.052Z,98.9743
2023-05-09T01:58:46.005Z,98.9145
2023-05-09T01:59:49.230Z,98.9052
2023-05-09T02:00:52.249Z,98.9089
2023-05-09T02:01:55.886Z,98.9536
2023-05-09T02:02:58.920Z,98.9950
2023-05-09T02:04:01.919Z,99.0116
2023-05-09T02:05:04.924Z,99.0595
2023-05-09T02:06:07.648Z,99.0416
2023-05-09T02:07:10.845Z,98.9928
2023-05-09T02:08:13.826Z,99.0478
2023-05-09T02:09:16.850Z,99.1645
2023-05-09T02:11:20.065Z,99.2191
2023-05-09T02:12:23.048Z,99.3550
2023-05-09T02:13:26.078Z,99.3517
2023-05-09T02:14:29.124Z,99.3315
2023-05-09T02:15:32.113Z,99.3475
2023-05-09T02:16:35.156Z,99.4070
2023-05-09T02:17:38.159Z,99.4352
2023-05-09T02:18:41.100Z,99.4624
2023-05-09T02:19:42.415Z,99.4673
2023-05-09T02:20:45.483Z,99.4410
2023-05-09T02:21:48.424Z,99.4098
2023-05-09T02:22:51.662Z,99.3950
2023-05-09T02:23:54.638Z,99.3857
2023-05-09T02:24:57.983Z,99.3864
2023-05-09T02:26:00.931Z,99.3910
2023-05-09T02:27:04.292Z,99.3978
2023-05-09T02:28:07.297Z,99.4282
2023-05-09T02:29:10.300Z,99.4655
2023-05-09T02:30:13.496Z,99.5035
2023-05-09T02:31:16.508Z,99.5209
2023-05-09T02:32:19.752Z,99.5487
2023-05-09T02:33:22.724Z,99.6089
2023-05-09T02:34:25.693Z,99.6498
2023-05-09T02:35:28.694Z,99.6779
2023-05-09T02:36:31.684Z,99.6623
2023-05-09T02:37:34.938Z,99.6372
2023-05-09T02:38:37.925Z,99.6205
2023-05-09T02:39:41.028Z,99.5915
2023-05-09T02:40:44.061Z,99.5692
2023-05-09T02:41:47.013Z,99.5608
2023-05-09T02:42:49.997Z,99.5798
2023-05-09T02:43:53.023Z,99.6222
2023-05-09T02:44:55.940Z,99.6236
2023-05-09T02:45:58.992Z,99.6390
2023-05-09T02:47:01.919Z,99.6502
2023-05-09T02:48:07.640Z,99.6397
2023-05-09T02:49:07.874Z,99.6814
2023-05-09T02:50:11.201Z,99.7122
2023-05-09T02:51:14.206Z,99.7377
2023-05-09T02:52:17.193Z,99.7353
2023-05-09T02:53:20.156Z,99.6963
2023-05-09T02:54:23.135Z,99.6989
2023-05-09T02:55:26.152Z,99.7802
2023-05-09T02:56:29.168Z,99.8021
2023-05-09T02:57:32.124Z,99.8260
2023-05-09T02:58:35.102Z,99.8551
2023-05-09T02:59:38.061Z,99.8915
2023-05-09T03:00:41.067Z,99.9063
2023-05-09T03:01:44.107Z,99.8988
2023-05-09T03:02:47.164Z,99.8844
2023-05-09T03:03:50.180Z,99.8629
2023-05-09T03:04:53.127Z,99.8573
2023-05-09T03:05:56.105Z,99.8591
2023-05-09T03:06:59.112Z,99.8575
2023-05-09T03:08:02.097Z,99.8591
2023-05-09T03:09:05.111Z,99.8596
2023-05-09T03:10:08.075Z,99.8811
2023-05-09T03:11:11.069Z,99.8903
2023-05-09T03:12:14.094Z,99.8954
2023-05-09T03:13:17.104Z,99.8784
2023-05-09T03:14:20.082Z,99.8401
2023-05-09T03:15:23.082Z,99.8082
2023-05-09T03:16:26.055Z,99.8138
2023-05-09T03:17:26.635Z,99.8358
2023-05-09T03:18:29.613Z,99.8944
2023-05-09T03:19:32.617Z,99.9382
2023-05-09T03:20:35.958Z,99.9808
2023-05-09T03:21:38.934Z,99.9982
2023-05-09T03:22:41.915Z,100.0000
2023-05-09T03:23:44.942Z,100.0000
2023-05-09T03:24:48.002Z,100.0000
2023-05-09T03:25:51.318Z,100.0000
2023-05-09T03:26:54.315Z,100.0000
2023-05-09T03:27:57.375Z,100.0000
2023-05-09T03:29:00.318Z,100.0000
2023-05-09T03:30:03.341Z,100.0000
2023-05-09T03:31:06.462Z,100.0000
2023-05-09T03:32:09.481Z,100.0000
2023-05-09T03:33:13.004Z,100.0000
2023-05-09T03:34:16.006Z,100.0000
2023-05-09T03:35:19.000Z,100.0000
2023-05-09T03:36:21.974Z,100.0000
2023-05-09T03:37:26.901Z,100.0000
2023-05-09T03:38:26.778Z,100.0000
2023-05-09T03:39:29.770Z,100.0000
2023-05-09T03:40:32.986Z,100.0000
2023-05-09T03:41:35.983Z,100.0000
2023-05-09T03:42:39.213Z,100.0000
2023-05-09T03:43:42.274Z,100.0000
2023-05-09T03:44:45.245Z,100.0000
2023-05-09T03:45:48.292Z,100.0000
2023-05-09T03:46:51.357Z,100.0000
2023-05-09T03:47:54.087Z,100.0000
2023-05-09T03:48:57.094Z,100.0000
2023-05-09T03:50:00.114Z,100.0000
2023-05-09T03:51:03.112Z,100.0000
2023-05-09T03:52:06.154Z,100.0000
2023-05-09T03:53:09.175Z,100.0000
2023-05-09T03:54:12.191Z,100.0000
2023-05-09T03:55:15.348Z,100.0000
2023-05-09T03:56:18.759Z,100.0000
2023-05-09T03:57:21.778Z,100.0000
2023-05-09T03:58:24.794Z,100.0000
2023-05-09T03:59:27.845Z,100.0000
2023-05-09T04:00:30.804Z,100.0000
2023-05-09T04:01:33.827Z,100.0000
2023-05-09T04:02:36.915Z,100.0000
2023-05-09T04:03:40.169Z,100.0000
2023-05-09T04:04:43.170Z,100.0000
2023-05-09T04:05:46.181Z,100.0000
2023-05-09T04:06:49.194Z,100.0000
2023-05-09T04:07:52.206Z,100.0000
2023-05-09T04:08:55.205Z,100.0000
2023-05-09T04:09:58.214Z,100.0000
2023-05-09T04:11:01.474Z,100.0000
2023-05-09T04:12:04.499Z,100.0000
2023-05-09T04:13:07.592Z,100.0000
2023-05-09T04:14:10.567Z,100.0000
2023-05-09T04:15:13.954Z,100.0000
2023-05-09T04:16:17.066Z,100.0000
2023-05-09T04:17:20.046Z,100.0000
2023-05-09T04:18:23.062Z,100.0000
2023-05-09T04:19:26.114Z,100.0000
2023-05-09T04:20:29.122Z,100.0000
2023-05-09T04:21:32.152Z,100.0000
2023-05-09T04:22:35.174Z,100.0000
2023-05-09T04:23:36.161Z,100.0000
2023-05-09T04:24:39.160Z,100.0000
2023-05-09T04:25:42.420Z,100.0000
2023-05-09T04:26:45.458Z,100.0000
2023-05-09T04:27:48.466Z,100.0000
2023-05-09T04:28:51.499Z,100.0000
2023-05-09T04:29:54.494Z,99.9992
2023-05-09T04:30:57.740Z,99.9972
2023-05-09T04:32:00.845Z,99.9699
2023-05-09T04:33:03.870Z,99.9163
2023-05-09T04:34:06.886Z,99.8786
2023-05-09T04:35:09.888Z,99.8322
2023-05-09T04:36:12.930Z,99.7777
2023-05-09T04:37:15.951Z,99.7145
2023-05-09T04:38:18.976Z,99.6471
2023-05-09T04:39:21.963Z,99.5650
2023-05-09T04:40:26.857Z,99.4252
2023-05-09T04:41:26.505Z,99.3302
2023-05-09T04:42:29.540Z,99.2756
2023-05-09T04:43:32.607Z,99.1875
2023-05-09T04:44:35.606Z,99.1292
2023-05-09T04:45:36.748Z,99.0282
2023-05-09T04:46:39.855Z,98.9119
2023-05-09T04:47:42.874Z,98.8567
2023-05-09T04:48:45.879Z,98.8359
2023-05-09T04:49:48.884Z,98.8359
2023-05-09T04:50:51.955Z,98.7843
2023-05-09T04:51:54.982Z,98.7108
2023-05-09T04:52:58.035Z,98.6364
2023-05-09T04:54:01.092Z,98.6381
2023-05-09T04:55:04.106Z,98.6031
2023-05-09T04:56:07.150Z,98.4859
2023-05-09T04:57:17.244Z,98.4263
2023-05-09T04:58:11.701Z,98.4094
2023-05-09T04:59:14.734Z,98.3843
2023-05-09T05:00:17.760Z,98.3480
2023-05-09T05:01:20.781Z,98.2743
2023-05-09T05:02:23.825Z,98.2652
2023-05-09T05:03:26.871Z,98.1931
2023-05-09T05:04:29.893Z,98.1755
2023-05-09T05:06:35.988Z,98.1935
2023-05-09T05:07:39.028Z,98.0547
2023-05-09T05:08:42.066Z,97.9767
2023-05-09T05:09:45.079Z,97.9793
2023-05-09T05:10:48.119Z,97.8617
2023-05-09T05:12:00.829Z,97.7391
2023-05-09T05:12:52.726Z,97.6904
2023-05-09T05:13:55.749Z,97.5741
2023-05-09T05:14:58.796Z,97.6190
2023-05-09T05:16:01.849Z,97.5707
2023-05-09T05:17:04.859Z,97.5607
2023-05-09T05:18:08.029Z,97.4240
2023-05-09T05:19:11.021Z,97.2280
2023-05-09T05:20:14.027Z,97.1818
2023-05-09T05:21:17.158Z,97.1952
2023-05-09T05:22:20.118Z,97.1542
2023-05-09T05:23:23.134Z,97.0355
2023-05-09T05:24:26.141Z,96.9749
2023-05-09T05:25:29.163Z,96.9155
2023-05-09T05:26:32.405Z,96.8057
2023-05-09T05:27:35.450Z,96.6602
2023-05-09T05:28:38.477Z,96.4381
2023-05-09T05:29:41.491Z,96.1365
2023-05-09T05:30:44.512Z,96.1011
2023-05-09T05:31:47.599Z,96.0085
2023-05-09T05:33:51.137Z,95.7925
2023-05-09T05:34:54.080Z,95.6814
2023-05-09T05:35:57.122Z,95.4311
2023-05-09T05:37:00.139Z,95.1871
2023-05-09T05:38:03.186Z,95.2194
2023-05-09T05:39:06.207Z,95.0480
2023-05-09T05:40:09.208Z,95.2946
2023-05-09T05:41:12.257Z,94.9100
2023-05-09T05:42:15.278Z,95.2464
2023-05-09T05:43:18.301Z,95.1409
2023-05-09T05:44:21.300Z,95.2303
2023-05-09T05:45:24.322Z,95.1137
2023-05-09T05:46:27.804Z,94.7267
2023-05-09T05:47:30.848Z,94.6547
2023-05-09T05:48:34.459Z,95.0360
2023-05-09T05:49:37.503Z,95.0177
2023-05-09T05:50:48.128Z,94.7085
2023-05-09T05:51:43.792Z,94.8750
2023-05-09T05:52:46.822Z,94.9651
2023-05-09T05:53:50.099Z,95.0811
2023-05-09T05:54:53.162Z,95.5739
2023-05-09T05:55:56.402Z,95.7006
2023-05-09T05:56:59.451Z,96.0224
2023-05-09T05:58:02.433Z,95.8092
2023-05-09T05:59:05.444Z,96.1554
2023-05-09T06:00:08.628Z,95.9815
2023-05-09T06:01:12.469Z,95.6155
2023-05-09T06:02:15.615Z,95.6164
2023-05-09T06:03:18.754Z,95.7263
2023-05-09T06:04:21.980Z,95.2652
2023-05-09T06:05:25.164Z,94.6358
2023-05-09T06:06:28.430Z,94.0206
2023-05-09T06:07:31.417Z,93.5139
2023-05-09T06:08:34.539Z,93.4979
2023-05-09T06:09:37.574Z,93.6137
2023-05-09T06:10:40.639Z,93.1639
2023-05-09T06:11:43.713Z,92.8582
2023-05-09T06:12:46.770Z,92.6666
2023-05-09T06:13:49.981Z,92.7738
2023-05-09T06:14:53.048Z,93.2662
2023-05-09T06:15:57.741Z,93.3936
2023-05-09T06:16:57.661Z,92.8434
2023-05-09T06:18:00.710Z,92.5448
2023-05-09T06:19:03.756Z,92.6998
2023-05-09T06:20:06.758Z,92.9990
2023-05-09T06:21:09.890Z,93.2428
2023-05-09T06:22:12.879Z,93.7686
2023-05-09T06:23:15.904Z,94.2473
2023-05-09T06:24:31.867Z,94.6440
2023-05-09T06:25:20.501Z,95.0502
2023-05-09T06:26:23.518Z,94.9691
2023-05-09T06:27:26.559Z,94.9673
2023-05-09T06:28:29.551Z,94.5569
2023-05-09T06:29:31.901Z,93.9406
2023-05-09T06:30:34.913Z,94.1425
2023-05-09T06:31:37.944Z,93.7338
2023-05-09T06:32:41.045Z,93.0718
2023-05-09T06:33:44.041Z,92.2998
2023-05-09T06:34:47.055Z,91.4931
2023-05-09T06:35:50.070Z,90.1142
2023-05-09T06:36:53.153Z,89.5943
2023-05-09T06:37:56.152Z,89.3845
2023-05-09T06:38:59.213Z,86.5891
2023-05-09T06:40:02.246Z,85.7727
2023-05-09T06:41:05.455Z,85.2385
2023-05-09T06:42:08.457Z,86.2712
2023-05-09T06:43:11.526Z,85.9560
2023-05-09T06:44:14.573Z,85.7924
2023-05-09T06:45:17.853Z,86.3412
2023-05-09T06:46:21.183Z,85.7382
2023-05-09T06:47:24.379Z,84.9481
2023-05-09T06:48:27.368Z,82.3746
2023-05-09T06:49:30.392Z,83.2221
2023-05-09T06:50:33.388Z,83.0026
2023-05-09T06:51:36.267Z,82.4916
2023-05-09T06:52:39.327Z,83.1165
2023-05-09T06:53:42.325Z,85.1228
2023-05-09T06:54:45.360Z,83.2371
2023-05-09T06:55:48.390Z,82.2206
2023-05-09T06:56:51.416Z,81.7409
2023-05-09T06:57:54.443Z,81.4664
2023-05-09T06:58:57.457Z,81.9662
2023-05-09T07:00:00.480Z,82.1827
2023-05-09T07:01:03.493Z,80.6886
2023-05-09T07:02:06.595Z,80.0891
2023-05-09T07:03:09.625Z,80.0560
2023-05-09T07:04:12.628Z,80.3355
2023-05-09T07:05:15.849Z,80.7204
2023-05-09T07:06:19.097Z,79.5499
2023-05-09T07:07:22.141Z,77.8337
2023-05-09T07:08:25.181Z,77.3083
2023-05-09T07:09:28.148Z,75.2318
2023-05-09T07:10:31.180Z,72.0477
2023-05-09T07:11:34.187Z,69.5869
2023-05-09T07:13:39.554Z,67.0288
2023-05-09T07:14:42.572Z,71.5101
2023-05-09T07:15:45.722Z,71.1263
2023-05-09T07:16:48.775Z,71.1434
2023-05-09T07:17:51.786Z,70.5098
2023-05-09T07:18:54.769Z,70.9023
2023-05-09T07:19:57.810Z,71.7487
2023-05-09T07:21:00.827Z,72.2922
2023-05-09T07:22:04.141Z,74.8940
2023-05-09T07:23:07.153Z,74.2457
2023-05-09T07:24:10.256Z,74.8533
2023-05-09T07:25:13.510Z,74.8437
2023-05-09T07:26:16.617Z,72.4415
2023-05-09T07:27:19.657Z,71.8145
2023-05-09T07:28:22.691Z,70.7047
2023-05-09T07:29:25.766Z,71.1508
2023-05-09T07:30:28.750Z,70.1952
2023-05-09T07:31:31.771Z,69.7500
2023-05-09T07:32:34.772Z,70.4549
2023-05-09T07:33:37.789Z,71.4816
2023-05-09T07:34:40.786Z,67.1386
2023-05-09T07:35:43.985Z,63.8526
2023-05-09T07:36:47.000Z,62.4674
2023-05-09T07:37:50.200Z,60.7156
2023-05-09T07:38:53.278Z,60.9436
2023-05-09T07:39:56.058Z,66.6484
2023-05-09T07:40:59.242Z,66.6122
2023-05-09T07:42:02.258Z,68.8694
2023-05-09T07:43:05.313Z,69.4624
2023-05-09T07:44:08.315Z,70.8642
2023-05-09T07:45:11.392Z,71.7707
2023-05-09T07:46:14.715Z,71.9070
2023-05-09T07:47:17.733Z,72.0169
2023-05-09T07:48:20.774Z,72.8898
2023-05-09T07:49:23.797Z,72.6016
2023-05-09T07:50:26.471Z,73.4026
2023-05-09T07:51:29.491Z,72.8475
2023-05-09T07:52:32.564Z,71.2583
2023-05-09T07:53:35.543Z,70.6362
2023-05-09T07:54:38.560Z,69.2173
2023-05-09T07:55:41.648Z,69.1132
2023-05-09T07:56:44.629Z,68.0869
2023-05-09T07:57:47.661Z,68.5006
2023-05-09T07:58:50.717Z,70.6895
2023-05-09T07:59:53.743Z,69.0683
2023-05-09T08:00:56.785Z,66.6280
2023-05-09T08:01:59.842Z,65.6396
2023-05-09T08:03:03.016Z,66.1935
2023-05-09T08:04:06.531Z,65.7479
2023-05-09T08:05:09.570Z,65.6302
2023-05-09T08:06:12.568Z,64.3548
2023-05-09T08:07:15.591Z,63.3078
2023-05-09T08:08:18.597Z,62.9813
2023-05-09T08:09:21.846Z,63.1424
2023-05-09T08:10:24.885Z,65.4699
2023-05-09T08:11:27.927Z,63.9501
2023-05-09T08:12:30.888Z,65.3373
2023-05-09T08:13:33.934Z,64.2832
2023-05-09T08:14:37.003Z,64.6756
2023-05-09T08:15:39.747Z,66.0277
2023-05-09T08:16:42.738Z,67.3331
2023-05-09T08:17:45.853Z,70.6472
2023-05-09T08:18:48.866Z,69.0281
2023-05-09T08:19:51.883Z,67.4202
2023-05-09T08:20:54.894Z,68.0082
2023-05-09T08:21:57.949Z,69.9538
2023-05-09T08:23:00.985Z,68.8340
2023-05-09T08:24:03.985Z,67.4617
2023-05-09T08:25:07.023Z,67.6648
2023-05-09T08:26:10.036Z,68.0746
2023-05-09T08:27:10.307Z,67.7293
2023-05-09T08:28:13.291Z,68.3047
2023-05-09T08:29:16.311Z,69.1579
2023-05-09T08:30:19.331Z,70.6836
2023-05-09T08:31:22.379Z,71.0290
2023-05-09T08:32:25.424Z,70.6855
2023-05-09T08:33:28.456Z,69.5701
2023-05-09T08:34:29.619Z,71.6250
2023-05-09T08:35:32.602Z,73.4105
2023-05-09T08:37:35.764Z,73.7002
2023-05-09T08:38:38.999Z,73.1814
2023-05-09T08:39:42.025Z,72.7386
2023-05-09T08:40:45.127Z,72.4294
2023-05-09T08:41:48.236Z,70.8398
2023-05-09T08:42:51.451Z,70.0563
2023-05-09T08:43:54.441Z,69.9968
2023-05-09T08:44:57.477Z,69.1519
2023-05-09T08:46:00.676Z,69.6509
2023-05-09T08:47:03.806Z,69.2539
2023-05-09T08:48:07.111Z,69.2441
2023-05-09T08:49:10.512Z,68.3977
2023-05-09T08:50:13.733Z,70.1165
2023-05-09T08:51:17.098Z,70.6236
2023-05-09T08:52:20.121Z,72.3393
2023-05-09T08:53:23.222Z,72.3997
2023-05-09T08:54:26.224Z,72.1298
2023-05-09T08:55:29.259Z,69.7133
2023-05-09T08:56:32.307Z,71.0603
2023-05-09T08:57:35.318Z,71.0798
2023-05-09T08:58:38.370Z,72.8904
2023-05-09T08:59:41.377Z,73.9204
2023-05-09T09:00:44.425Z,73.8947
2023-05-09T09:01:47.523Z,72.3195
2023-05-09T09:02:50.553Z,73.1602
2023-05-09T09:03:53.589Z,73.9593
2023-05-09T09:04:56.705Z,74.1950
2023-05-09T09:05:59.788Z,74.0048
2023-05-09T09:07:02.824Z,73.8101
2023-05-09T09:08:05.853Z,73.2552
2023-05-09T09:09:08.892Z,72.4834
2023-05-09T09:10:11.959Z,70.5174
2023-05-09T09:11:14.951Z,65.2944
2023-05-09T09:12:17.952Z,65.2928
2023-05-09T09:13:21.003Z,68.5667
2023-05-09T09:14:24.077Z,71.2606
2023-05-09T09:15:27.072Z,72.8037
2023-05-09T09:16:30.153Z,71.2966
2023-05-09T09:17:33.232Z,70.4884
2023-05-09T09:18:36.288Z,70.8343
2023-05-09T09:19:39.326Z,72.1047
2023-05-09T09:20:42.394Z,72.1870
2023-05-09T09:21:45.403Z,72.7991
2023-05-09T09:22:48.523Z,71.3424
2023-05-09T09:23:51.533Z,69.5831
2023-05-09T09:24:54.620Z,68.4220
2023-05-09T09:25:59.607Z,67.2373
2023-05-09T09:27:59.449Z,65.8408
2023-05-09T09:29:02.448Z,66.1340
2023-05-09T09:30:05.526Z,65.2191
2023-05-09T09:31:08.514Z,66.7786
2023-05-09T09:32:11.570Z,67.0475
2023-05-09T09:33:14.724Z,66.3303
2023-05-09T09:34:17.698Z,66.0598
2023-05-09T09:35:20.713Z,64.3512
2023-05-09T09:36:23.740Z,63.2268
2023-05-09T09:37:24.005Z,63.4052
2023-05-09T09:38:30.879Z,65.0829
2023-05-09T09:39:34.015Z,63.9050
2023-05-09T09:40:37.016Z,64.0755
2023-05-09T09:41:40.206Z,65.8794
2023-05-09T09:42:43.238Z,65.8188
2023-05-09T09:43:46.257Z,61.7680
2023-05-09T09:44:49.265Z,56.4735
2023-05-09T09:45:52.431Z,54.3275
2023-05-09T09:46:55.490Z,52.8602
2023-05-09T09:47:58.601Z,52.7742
2023-05-09T09:49:01.865Z,53.8187
2023-05-09T09:50:04.935Z,49.5185
2023-05-09T09:51:08.135Z,48.0920
2023-05-09T09:52:11.182Z,49.5639
2023-05-09T09:53:14.194Z,49.5403
2023-05-09T09:54:18.326Z,49.5153
2023-05-09T09:55:17.669Z,48.9113
2023-05-09T09:56:20.621Z,51.0639
2023-05-09T09:57:23.662Z,52.6444
2023-05-09T09:58:26.694Z,54.0807
2023-05-09T09:59:29.981Z,52.8459
2023-05-09T10:00:32.989Z,55.0162
2023-05-09T10:01:36.116Z,55.9112
2023-05-09T10:02:39.393Z,55.5245
2023-05-09T10:03:42.443Z,53.3204
2023-05-09T10:04:43.573Z,55.6951
2023-05-09T10:05:46.585Z,55.0408
2023-05-09T10:06:49.610Z,55.5367
2023-05-09T10:07:52.674Z,56.9982
2023-05-09T10:08:55.678Z,55.8637
2023-05-09T10:09:57.141Z,57.3337
2023-05-09T10:11:00.159Z,54.6564
2023-05-09T10:12:03.627Z,54.4919
2023-05-09T10:13:06.693Z,54.8595
2023-05-09T10:14:09.748Z,52.8691
2023-05-09T10:15:12.749Z,51.4181
2023-05-09T10:16:35.646Z,53.1312
2023-05-09T10:18:25.759Z,52.2481
2023-05-09T10:19:28.838Z,50.4956
2023-05-09T10:20:31.906Z,52.1065
2023-05-09T10:21:36.160Z,54.2196
2023-05-09T10:22:36.343Z,52.9764
2023-05-09T10:23:39.065Z,53.1198
2023-05-09T10:24:42.116Z,54.5889
2023-05-09T10:25:45.166Z,52.8039
2023-05-09T10:26:48.519Z,50.1229
2023-05-09T10:27:51.603Z,51.5038
2023-05-09T10:28:54.632Z,51.2725
2023-05-09T10:29:57.933Z,54.1185
2023-05-09T10:31:01.019Z,55.9091
2023-05-09T10:32:04.056Z,55.5401
2023-05-09T10:33:07.159Z,52.0328
2023-05-09T10:34:10.421Z,54.9711
2023-05-09T10:35:13.657Z,57.2318
2023-05-09T10:36:16.869Z,59.2440
2023-05-09T10:37:20.350Z,60.4968
2023-05-09T10:38:23.414Z,60.5641
2023-05-09T10:39:26.728Z,62.1548
2023-05-09T10:40:29.782Z,60.3393
2023-05-09T10:41:32.832Z,57.6348
2023-05-09T10:42:36.129Z,58.5097
2023-05-09T10:43:38.913Z,58.3723
2023-05-09T10:44:41.959Z,56.5357
2023-05-09T10:45:45.031Z,55.9426
2023-05-09T10:46:48.161Z,56.5208
2023-05-09T10:47:51.336Z,57.3886
2023-05-09T10:48:54.439Z,57.9620
2023-05-09T10:50:02.618Z,57.6497
2023-05-09T10:51:05.613Z,56.3633
2023-05-09T10:52:08.695Z,54.5350
2023-05-09T10:53:11.765Z,55.3540
2023-05-09T10:54:14.820Z,52.7207
2023-05-09T10:55:17.908Z,53.0683
2023-05-09T10:56:20.987Z,52.8683
2023-05-09T10:57:24.330Z,51.5251
2023-05-09T10:58:27.404Z,51.9776
2023-05-09T10:59:30.464Z,55.7621
2023-05-09T11:00:33.538Z,53.4445
2023-05-09T11:02:38.292Z,54.9240
2023-05-09T11:03:41.626Z,56.8004
2023-05-09T11:04:44.774Z,57.6658
2023-05-09T11:05:47.838Z,58.2287
2023-05-09T11:06:50.918Z,57.2071
2023-05-09T11:07:54.108Z,57.0725
2023-05-09T11:08:57.192Z,57.3238
2023-05-09T11:10:00.282Z,56.7867
2023-05-09T11:11:03.368Z,57.3743
2023-05-09T11:13:09.179Z,56.4107
2023-05-09T11:14:12.221Z,57.7642
2023-05-09T11:15:15.446Z,56.4384
2023-05-09T11:16:18.667Z,54.3442
2023-05-09T11:17:22.072Z,54.1167
2023-05-09T11:18:25.242Z,54.1563
2023-05-09T11:19:28.290Z,52.1910
2023-05-09T11:20:31.394Z,51.5547
2023-05-09T11:21:34.654Z,54.4380
2023-05-09T11:22:37.726Z,54.2501
2023-05-09T11:23:40.805Z,55.3161
2023-05-09T11:24:43.864Z,57.3234
2023-05-09T11:25:46.959Z,56.6077
2023-05-09T11:26:49.984Z,56.5736
2023-05-09T11:27:53.100Z,57.2271
2023-05-09T11:28:56.317Z,58.1921
2023-05-09T11:29:59.370Z,58.4782
2023-05-09T11:31:02.448Z,58.3834
2023-05-09T11:32:05.507Z,58.4328
2023-05-09T11:33:09.144Z,57.7177
2023-05-09T11:34:12.405Z,57.1041
2023-05-09T11:35:15.984Z,58.2314
2023-05-09T11:36:15.625Z,57.7617
2023-05-09T11:37:18.701Z,57.6747
2023-05-09T11:38:29.278Z,56.6954
2023-05-09T11:39:32.368Z,54.7968
2023-05-09T11:40:35.461Z,55.0422
2023-05-09T11:41:38.578Z,56.3896
2023-05-09T11:42:41.594Z,56.0257
2023-05-09T11:43:44.676Z,56.9432
2023-05-09T11:44:47.950Z,56.6598
2023-05-09T11:45:51.062Z,54.9809
2023-05-09T11:46:54.167Z,56.1084
2023-05-09T11:47:57.298Z,55.8333
2023-05-09T11:49:07.784Z,54.9471
2023-05-09T11:50:04.069Z,54.7696
2023-05-09T11:51:07.092Z,56.5854
2023-05-09T11:52:10.237Z,57.2556
2023-05-09T11:53:13.420Z,57.7146
2023-05-09T11:54:16.451Z,55.9657
2023-05-09T11:55:19.748Z,55.5336
2023-05-09T11:56:22.846Z,54.8403
2023-05-09T11:57:25.890Z,53.6465
2023-05-09T11:58:28.999Z,51.2234
2023-05-09T11:59:32.083Z,51.2575
2023-05-09T12:00:35.146Z,50.5451
2023-05-09T12:01:38.216Z,49.8385
2023-05-09T12:02:41.396Z,49.1437
2023-05-09T12:03:44.534Z,49.2029
2023-05-09T12:04:47.648Z,51.6972
2023-05-09T12:05:50.938Z,53.6938
2023-05-09T12:06:54.021Z,52.5476
2023-05-09T12:07:57.090Z,52.6634
2023-05-09T12:09:00.181Z,52.5072
2023-05-09T12:10:03.213Z,51.6169
2023-05-09T12:11:06.278Z,51.9822
2023-05-09T12:12:07.502Z,52.4067
2023-05-09T12:13:10.628Z,51.6094
2023-05-09T12:14:13.752Z,52.6233
2023-05-09T12:15:17.112Z,52.2069
2023-05-09T12:16:17.032Z,51.4597
2023-05-09T12:17:19.854Z,49.9537
2023-05-09T12:18:23.273Z,48.1288
2023-05-09T12:19:26.344Z,49.3807
2023-05-09T12:20:29.388Z,52.0064
2023-05-09T12:21:32.446Z,52.9831
2023-05-09T12:22:35.638Z,54.1482
2023-05-09T12:23:38.699Z,52.8260
2023-05-09T12:24:41.805Z,55.0759
2023-05-09T12:25:44.953Z,56.3267
2023-05-09T12:26:48.000Z,54.5099
2023-05-09T12:27:51.089Z,55.8882
2023-05-09T12:28:54.140Z,56.0339
2023-05-09T12:29:57.202Z,54.6544
2023-05-09T12:31:00.279Z,53.6452
2023-05-09T12:33:03.997Z,54.3092
2023-05-09T12:34:07.049Z,54.0905
2023-05-09T12:35:10.127Z,53.4775
2023-05-09T12:36:13.207Z,53.1709
2023-05-09T12:37:14.392Z,55.1216
2023-05-09T12:38:17.665Z,54.6435
2023-05-09T12:39:20.704Z,54.7553
2023-05-09T12:40:23.811Z,55.0525
2023-05-09T12:41:36.907Z,56.2036
2023-05-09T12:42:28.424Z,55.6946
2023-05-09T12:43:31.488Z,55.8127
2023-05-09T12:44:34.576Z,56.7195
2023-05-09T12:45:37.665Z,55.6201
2023-05-09T12:46:40.762Z,56.1235
2023-05-09T12:47:43.826Z,55.0299
2023-05-09T12:48:46.867Z,52.9558
2023-05-09T12:49:49.947Z,51.7234